Main page
METAR-TAF:

METAR-TAF

Airports :

Dubuque Regional Airport

Dubuque, Iowa, United States

latitude: 42-23-52N, longitude: 090-42-13W, elevation: 1076 ft

Current weather observation

The report was made 40 minutes ago, at 00:53 UTC
Wind 7 mph from the East
Temperature 52°F
Humidity 37%
Pressure 30.23 in. Hg
Visibility: 10 miles
Clear sky

METAR: KDBQ 250053Z 08006KT 10SM CLR 11/M03 A3023 RMK AO2 SLP242 T01061028

Time: 20:33 (01:33 UTC)

Forecast

The report was made 2 hours and 0 minutes ago, at 23:33 UTC
Forecast valid from 25 at 00 UTC to 25 at 24 UTC
Wind 6 mph from the East
Visibility: 6 miles
Clear sky
From 25 at 1200 UTC
Wind 10 mph from the South/Southeast
Visibility: 6 miles
Scattered clouds at a height of 25000 ft
From 25 at 1800 UTC
Wind 14 mph from the Southeast with gusts up to 23 mph
Visibility: 6 miles
Scattered clouds at a height of 15000 ft

TAF: KDBQ 242333Z 2500/2524 10005KT P6SM SKC FM251200 15009KT P6SM SCT250 FM251800 14012G20KT P6SM SCT150

Weather observations and forecasts of more than 4000 airports (METAR and TAF reports).

The available stations are represented by yellow and red dots on the map.

Hover mouse over dot to see the name of the station.

Then click to see weather observations and forecasts.

To change the map : click on the green buttons with a black cross to zoom in, on the green button with a dash to zoom out, or on the green arrows for adjacent maps.


METAR-TAF: